sensor_id;sensor_type;location;lat;lon;timestamp;pressure;altitude;pressure_sealevel;temperature;humidity
75208;BME280;63795;55.684;37.864;2023-02-22T00:00:59;98572.06;;;-14.59;69.30
75208;BME280;63795;55.684;37.864;2023-02-22T00:06:15;98582.69;;;-14.67;69.45
75208;BME280;63795;55.684;37.864;2023-02-22T00:11:16;98581.03;;;-14.63;69.26
75208;BME280;63795;55.684;37.864;2023-02-22T00:16:19;98596.00;;;-14.66;68.97
75208;BME280;63795;55.684;37.864;2023-02-22T00:21:20;98597.94;;;-14.81;69.45
75208;BME280;63795;55.684;37.864;2023-02-22T00:26:21;98601.75;;;-14.88;70.06
75208;BME280;63795;55.684;37.864;2023-02-22T00:31:22;98624.00;;;-14.70;69.41
75208;BME280;63795;55.684;37.864;2023-02-22T00:36:22;98619.38;;;-14.65;69.26
75208;BME280;63795;55.684;37.864;2023-02-22T00:41:23;98613.94;;;-14.80;69.44
75208;BME280;63795;55.684;37.864;2023-02-22T00:46:23;98632.72;;;-14.83;69.44
75208;BME280;63795;55.684;37.864;2023-02-22T00:51:25;98634.34;;;-14.93;69.42
75208;BME280;63795;55.684;37.864;2023-02-22T00:56:26;98635.72;;;-14.95;69.35
75208;BME280;63795;55.684;37.864;2023-02-22T01:01:26;98632.72;;;-14.83;69.46
75208;BME280;63795;55.684;37.864;2023-02-22T01:06:27;98634.09;;;-14.91;69.35
75208;BME280;63795;55.684;37.864;2023-02-22T01:11:28;98651.47;;;-14.97;69.15
75208;BME280;63795;55.684;37.864;2023-02-22T01:16:29;98661.50;;;-15.13;69.89
75208;BME280;63795;55.684;37.864;2023-02-22T01:21:30;98660.41;;;-15.17;69.92
75208;BME280;63795;55.684;37.864;2023-02-22T01:26:31;98674.53;;;-15.15;70.10
75208;BME280;63795;55.684;37.864;2023-02-22T01:31:31;98680.00;;;-15.20;69.78
75208;BME280;63795;55.684;37.864;2023-02-22T01:36:32;98679.41;;;-15.27;70.58
75208;BME280;63795;55.684;37.864;2023-02-22T01:41:32;98681.59;;;-15.24;70.53
75208;BME280;63795;55.684;37.864;2023-02-22T01:46:32;98677.25;;;-15.30;70.43
75208;BME280;63795;55.684;37.864;2023-02-22T01:51:37;98697.09;;;-15.24;70.61
75208;BME280;63795;55.684;37.864;2023-02-22T01:56:45;98695.47;;;-15.25;70.31
75208;BME280;63795;55.684;37.864;2023-02-22T02:01:46;98704.19;;;-15.13;70.06
75208;BME280;63795;55.684;37.864;2023-02-22T02:06:47;98714.22;;;-15.14;70.13
75208;BME280;63795;55.684;37.864;2023-02-22T02:11:48;98710.97;;;-15.16;70.04
75208;BME280;63795;55.684;37.864;2023-02-22T02:16:50;98711.22;;;-15.22;70.70
75208;BME280;63795;55.684;37.864;2023-02-22T02:27:25;98728.84;;;-15.25;70.69
75208;BME280;63795;55.684;37.864;2023-02-22T02:32:59;98737.56;;;-15.28;70.42
75208;BME280;63795;55.684;37.864;2023-02-22T02:38:03;98740.78;;;-15.31;70.72
75208;BME280;63795;55.684;37.864;2023-02-22T02:43:13;98757.63;;;-15.34;70.48
75208;BME280;63795;55.684;37.864;2023-02-22T02:48:18;98760.31;;;-15.39;70.96
75208;BME280;63795;55.684;37.864;2023-02-22T02:53:24;98766.28;;;-15.37;70.53
75208;BME280;63795;55.684;37.864;2023-02-22T02:58:26;98772.03;;;-15.33;70.90
75208;BME280;63795;55.684;37.864;2023-02-22T03:08:56;98776.91;;;-15.45;70.32
75208;BME280;63795;55.684;37.864;2023-02-22T03:14:23;98777.69;;;-15.50;70.37
75208;BME280;63795;55.684;37.864;2023-02-22T03:24:32;98807.00;;;-15.57;70.21
75208;BME280;63795;55.684;37.864;2023-02-22T03:29:42;98801.03;;;-15.59;70.23
75208;BME280;63795;55.684;37.864;2023-02-22T03:34:51;98810.50;;;-15.61;70.57
75208;BME280;63795;55.684;37.864;2023-02-22T03:39:58;98825.19;;;-15.57;70.40
75208;BME280;63795;55.684;37.864;2023-02-22T03:45:02;98829.50;;;-15.56;70.65
75208;BME280;63795;55.684;37.864;2023-02-22T03:50:16;98821.09;;;-15.65;70.39
75208;BME280;63795;55.684;37.864;2023-02-22T03:55:17;98847.97;;;-15.58;70.40
75208;BME280;63795;55.684;37.864;2023-02-22T04:00:23;98841.53;;;-15.47;70.42
75208;BME280;63795;55.684;37.864;2023-02-22T04:05:24;98855.66;;;-15.45;70.27
75208;BME280;63795;55.684;37.864;2023-02-22T04:10:25;98848.84;;;-15.48;70.39
75208;BME280;63795;55.684;37.864;2023-02-22T04:15:26;98857.78;;;-15.52;70.68
75208;BME280;63795;55.684;37.864;2023-02-22T04:20:26;98858.03;;;-15.54;70.35
75208;BME280;63795;55.684;37.864;2023-02-22T04:25:27;98859.31;;;-15.66;70.38
75208;BME280;63795;55.684;37.864;2023-02-22T04:30:27;98870.72;;;-15.64;70.88
75208;BME280;63795;55.684;37.864;2023-02-22T04:35:29;98878.94;;;-15.59;70.50
75208;BME280;63795;55.684;37.864;2023-02-22T04:40:30;98884.09;;;-15.58;69.96
75208;BME280;63795;55.684;37.864;2023-02-22T04:45:30;98890.78;;;-15.70;70.17
75208;BME280;63795;55.684;37.864;2023-02-22T04:50:31;98887.84;;;-15.69;70.17
75208;BME280;63795;55.684;37.864;2023-02-22T04:55:31;98900.91;;;-15.61;70.17
75208;BME280;63795;55.684;37.864;2023-02-22T05:00:33;98901.97;;;-15.62;70.26
75208;BME280;63795;55.684;37.864;2023-02-22T05:05:33;98916.16;;;-15.55;70.11
75208;BME280;63795;55.684;37.864;2023-02-22T05:10:34;98923.81;;;-15.47;70.14
75208;BME280;63795;55.684;37.864;2023-02-22T05:15:34;98914.22;;;-15.54;69.67
75208;BME280;63795;55.684;37.864;2023-02-22T05:20:35;98926.75;;;-15.53;69.92
75208;BME280;63795;55.684;37.864;2023-02-22T05:25:35;98925.34;;;-15.61;70.11
75208;BME280;63795;55.684;37.864;2023-02-22T05:30:36;98927.53;;;-15.58;70.10
75208;BME280;63795;55.684;37.864;2023-02-22T05:35:39;98931.63;;;-15.50;70.08
75208;BME280;63795;55.684;37.864;2023-02-22T05:40:40;98950.41;;;-15.49;70.04
75208;BME280;63795;55.684;37.864;2023-02-22T05:45:41;98949.75;;;-15.14;69.74
75208;BME280;63795;55.684;37.864;2023-02-22T05:50:42;98952.44;;;-14.62;68.92
75208;BME280;63795;55.684;37.864;2023-02-22T05:55:43;98953.59;;;-14.18;68.54
75208;BME280;63795;55.684;37.864;2023-02-22T06:00:43;98958.56;;;-13.85;67.42
75208;BME280;63795;55.684;37.864;2023-02-22T06:05:44;98962.09;;;-13.49;65.25
75208;BME280;63795;55.684;37.864;2023-02-22T06:10:44;98967.25;;;-13.18;66.12
75208;BME280;63795;55.684;37.864;2023-02-22T06:15:45;98967.09;;;-12.77;64.30
75208;BME280;63795;55.684;37.864;2023-02-22T06:20:45;98965.13;;;-12.08;63.73
75208;BME280;63795;55.684;37.864;2023-02-22T06:25:46;98970.72;;;-12.28;60.45
75208;BME280;63795;55.684;37.864;2023-02-22T06:30:47;98968.69;;;-12.66;62.18
75208;BME280;63795;55.684;37.864;2023-02-22T06:35:47;98984.16;;;-13.36;62.54
75208;BME280;63795;55.684;37.864;2023-02-22T06:40:48;98993.41;;;-13.62;63.99
75208;BME280;63795;55.684;37.864;2023-02-22T06:45:49;98996.97;;;-13.56;63.71
75208;BME280;63795;55.684;37.864;2023-02-22T06:50:50;99001.00;;;-12.98;62.92
75208;BME280;63795;55.684;37.864;2023-02-22T06:55:52;99008.56;;;-12.75;62.96
75208;BME280;63795;55.684;37.864;2023-02-22T07:00:53;99011.41;;;-12.27;61.58
75208;BME280;63795;55.684;37.864;2023-02-22T07:05:54;99010.97;;;-11.95;60.88
75208;BME280;63795;55.684;37.864;2023-02-22T07:10:55;99022.06;;;-11.81;59.35
75208;BME280;63795;55.684;37.864;2023-02-22T07:15:55;99020.34;;;-12.16;59.86
75208;BME280;63795;55.684;37.864;2023-02-22T07:20:56;99030.88;;;-12.58;60.65
75208;BME280;63795;55.684;37.864;2023-02-22T07:26:02;99036.97;;;-13.01;61.74
75208;BME280;63795;55.684;37.864;2023-02-22T07:31:02;99037.03;;;-13.06;62.72
75208;BME280;63795;55.684;37.864;2023-02-22T07:36:04;99034.81;;;-13.09;62.48
75208;BME280;63795;55.684;37.864;2023-02-22T07:41:05;99050.66;;;-13.06;62.35
75208;BME280;63795;55.684;37.864;2023-02-22T07:46:06;99058.28;;;-13.08;62.47
75208;BME280;63795;55.684;37.864;2023-02-22T07:51:06;99056.31;;;-12.83;62.12
75208;BME280;63795;55.684;37.864;2023-02-22T07:56:08;99069.97;;;-13.08;61.32
75208;BME280;63795;55.684;37.864;2023-02-22T08:01:09;99069.19;;;-13.29;61.81
75208;BME280;63795;55.684;37.864;2023-02-22T08:06:09;99069.19;;;-13.08;62.45
75208;BME280;63795;55.684;37.864;2023-02-22T08:11:10;99065.34;;;-13.28;62.15
75208;BME280;63795;55.684;37.864;2023-02-22T08:16:10;99063.44;;;-13.22;62.08
75208;BME280;63795;55.684;37.864;2023-02-22T08:21:11;99083.63;;;-13.08;62.07
75208;BME280;63795;55.684;37.864;2023-02-22T08:26:11;99084.72;;;-13.09;61.64
75208;BME280;63795;55.684;37.864;2023-02-22T08:31:17;99100.25;;;-13.09;61.74
75208;BME280;63795;55.684;37.864;2023-02-22T08:36:18;99104.31;;;-12.92;61.16
75208;BME280;63795;55.684;37.864;2023-02-22T08:41:18;99120.69;;;-12.87;61.63
75208;BME280;63795;55.684;37.864;2023-02-22T08:46:18;99116.28;;;-12.68;62.00
75208;BME280;63795;55.684;37.864;2023-02-22T08:51:19;99117.66;;;-12.65;61.46
75208;BME280;63795;55.684;37.864;2023-02-22T08:56:20;99129.63;;;-12.56;61.88
75208;BME280;63795;55.684;37.864;2023-02-22T09:01:23;99126.38;;;-12.53;61.22
75208;BME280;63795;55.684;37.864;2023-02-22T09:06:28;99132.91;;;-12.54;60.87
75208;BME280;63795;55.684;37.864;2023-02-22T09:11:29;99144.13;;;-12.51;61.00
75208;BME280;63795;55.684;37.864;2023-02-22T09:16:30;99138.31;;;-12.34;61.34
75208;BME280;63795;55.684;37.864;2023-02-22T09:21:30;99148.16;;;-12.28;60.33
75208;BME280;63795;55.684;37.864;2023-02-22T09:26:31;99145.38;;;-12.13;60.15
75208;BME280;63795;55.684;37.864;2023-02-22T09:31:34;99147.25;;;-11.93;60.99
75208;BME280;63795;55.684;37.864;2023-02-22T09:36:35;99143.06;;;-11.71;60.13
75208;BME280;63795;55.684;37.864;2023-02-22T09:47:03;99148.81;;;-10.90;59.39
75208;BME280;63795;55.684;37.864;2023-02-22T09:52:17;99147.91;;;-9.71;58.55
75208;BME280;63795;55.684;37.864;2023-02-22T09:57:29;99147.59;;;-8.90;55.82
75208;BME280;63795;55.684;37.864;2023-02-22T10:02:36;99152.28;;;-8.39;52.94
75208;BME280;63795;55.684;37.864;2023-02-22T10:07:48;99144.97;;;-8.44;52.94
75208;BME280;63795;55.684;37.864;2023-02-22T10:12:59;99148.22;;;-7.69;50.66
75208;BME280;63795;55.684;37.864;2023-02-22T10:18:16;99154.22;;;-7.81;49.86
75208;BME280;63795;55.684;37.864;2023-02-22T10:23:32;99162.84;;;-7.19;52.11
75208;BME280;63795;55.684;37.864;2023-02-22T10:28:43;99163.41;;;-7.58;47.40
75208;BME280;63795;55.684;37.864;2023-02-22T10:33:55;99172.16;;;-7.56;49.77
75208;BME280;63795;55.684;37.864;2023-02-22T10:39:11;99170.44;;;-6.89;51.19
75208;BME280;63795;55.684;37.864;2023-02-22T10:44:14;99176.19;;;-6.85;46.88
75208;BME280;63795;55.684;37.864;2023-02-22T10:49:20;99188.28;;;-6.51;51.26
75208;BME280;63795;55.684;37.864;2023-02-22T10:54:24;99182.78;;;-6.51;46.58
75208;BME280;63795;55.684;37.864;2023-02-22T10:59:31;99186.84;;;-6.70;50.29
75208;BME280;63795;55.684;37.864;2023-02-22T11:04:45;99188.38;;;-6.42;48.54
75208;BME280;63795;55.684;37.864;2023-02-22T11:09:57;99197.94;;;-6.62;47.01
75208;BME280;63795;55.684;37.864;2023-02-22T11:15:31;99195.78;;;-6.65;45.36
75208;BME280;63795;55.684;37.864;2023-02-22T11:20:36;99205.44;;;-6.76;47.40
75208;BME280;63795;55.684;37.864;2023-02-22T11:25:40;99199.53;;;-6.47;46.52
75208;BME280;63795;55.684;37.864;2023-02-22T11:30:45;99216.53;;;-6.67;46.88
75208;BME280;63795;55.684;37.864;2023-02-22T11:41:11;99214.66;;;-7.62;48.11
75208;BME280;63795;55.684;37.864;2023-02-22T11:46:21;99217.00;;;-8.01;49.39
75208;BME280;63795;55.684;37.864;2023-02-22T11:56:44;99224.56;;;-8.76;50.46
75208;BME280;63795;55.684;37.864;2023-02-22T12:02:20;99237.84;;;-8.83;51.21
75208;BME280;63795;55.684;37.864;2023-02-22T12:12:57;99248.25;;;-9.22;52.21
75208;BME280;63795;55.684;37.864;2023-02-22T12:28:44;99258.34;;;-8.06;49.68
75208;BME280;63795;55.684;37.864;2023-02-22T12:39:10;99275.25;;;-8.68;50.75
75208;BME280;63795;55.684;37.864;2023-02-22T12:44:32;99285.59;;;-9.26;51.92
75208;BME280;63795;55.684;37.864;2023-02-22T12:49:39;99296.47;;;-9.40;52.57
75208;BME280;63795;55.684;37.864;2023-02-22T12:54:53;99302.81;;;-9.44;52.93
75208;BME280;63795;55.684;37.864;2023-02-22T13:00:00;99297.53;;;-9.36;52.58
75208;BME280;63795;55.684;37.864;2023-02-22T13:05:02;99309.13;;;-9.73;53.52
75208;BME280;63795;55.684;37.864;2023-02-22T13:10:34;99313.88;;;-9.83;54.31
75208;BME280;63795;55.684;37.864;2023-02-22T13:16:01;99314.56;;;-9.68;53.85
75208;BME280;63795;55.684;37.864;2023-02-22T13:21:20;99312.88;;;-9.92;54.55
75208;BME280;63795;55.684;37.864;2023-02-22T13:37:05;99331.34;;;-10.08;54.61
75208;BME280;63795;55.684;37.864;2023-02-22T13:48:15;99345.13;;;-10.18;55.31
75208;BME280;63795;55.684;37.864;2023-02-22T13:53:26;99358.56;;;-10.16;55.43
75208;BME280;63795;55.684;37.864;2023-02-22T13:58:28;99353.22;;;-10.36;55.61
75208;BME280;63795;55.684;37.864;2023-02-22T14:03:32;99346.97;;;-10.47;56.37
75208;BME280;63795;55.684;37.864;2023-02-22T14:19:03;99349.72;;;-10.42;56.37
75208;BME280;63795;55.684;37.864;2023-02-22T14:24:15;99357.09;;;-10.48;56.94
75208;BME280;63795;55.684;37.864;2023-02-22T14:29:17;99363.16;;;-10.51;57.36
75208;BME280;63795;55.684;37.864;2023-02-22T14:35:00;99364.53;;;-10.53;57.15
75208;BME280;63795;55.684;37.864;2023-02-22T14:39:56;99365.66;;;-10.59;57.07
75208;BME280;63795;55.684;37.864;2023-02-22T14:55:55;99373.91;;;-10.69;58.38
75208;BME280;63795;55.684;37.864;2023-02-22T15:00:57;99376.66;;;-10.64;58.51
75208;BME280;63795;55.684;37.864;2023-02-22T15:06:05;99398.81;;;-10.66;58.48
75208;BME280;63795;55.684;37.864;2023-02-22T15:11:21;99388.97;;;-10.72;58.94
75208;BME280;63795;55.684;37.864;2023-02-22T15:16:25;99404.56;;;-10.62;58.98
75208;BME280;63795;55.684;37.864;2023-02-22T15:21:27;99411.66;;;-10.61;59.07
75208;BME280;63795;55.684;37.864;2023-02-22T15:26:46;99412.78;;;-10.62;59.00
75208;BME280;63795;55.684;37.864;2023-02-22T15:31:48;99411.16;;;-10.68;59.32
75208;BME280;63795;55.684;37.864;2023-02-22T15:36:52;99423.78;;;-10.77;60.00
75208;BME280;63795;55.684;37.864;2023-02-22T15:42:08;99438.00;;;-10.75;59.71
75208;BME280;63795;55.684;37.864;2023-02-22T15:47:17;99431.16;;;-10.78;60.04
75208;BME280;63795;55.684;37.864;2023-02-22T15:52:20;99428.19;;;-10.91;60.72
75208;BME280;63795;55.684;37.864;2023-02-22T15:57:22;99439.94;;;-10.86;61.04
75208;BME280;63795;55.684;37.864;2023-02-22T16:02:36;99429.56;;;-10.94;60.82
75208;BME280;63795;55.684;37.864;2023-02-22T16:07:40;99440.25;;;-10.97;61.79
75208;BME280;63795;55.684;37.864;2023-02-22T16:12:44;99445.72;;;-10.92;60.49
75208;BME280;63795;55.684;37.864;2023-02-22T16:17:45;99446.25;;;-10.90;61.34
75208;BME280;63795;55.684;37.864;2023-02-22T16:22:47;99452.25;;;-10.83;60.97
75208;BME280;63795;55.684;37.864;2023-02-22T16:27:50;99458.28;;;-10.86;61.03
75208;BME280;63795;55.684;37.864;2023-02-22T16:32:54;99463.22;;;-10.93;61.77
75208;BME280;63795;55.684;37.864;2023-02-22T16:38:00;99451.97;;;-10.92;61.37
75208;BME280;63795;55.684;37.864;2023-02-22T16:43:07;99465.66;;;-10.92;61.63
75208;BME280;63795;55.684;37.864;2023-02-22T16:48:17;99467.06;;;-10.99;61.51
75208;BME280;63795;55.684;37.864;2023-02-22T16:53:20;99471.44;;;-10.98;61.47
75208;BME280;63795;55.684;37.864;2023-02-22T16:58:21;99487.56;;;-10.92;61.77
75208;BME280;63795;55.684;37.864;2023-02-22T17:03:23;99487.88;;;-10.98;61.80
75208;BME280;63795;55.684;37.864;2023-02-22T17:08:24;99492.50;;;-10.99;61.82
75208;BME280;63795;55.684;37.864;2023-02-22T17:13:26;99491.69;;;-10.99;61.40
75208;BME280;63795;55.684;37.864;2023-02-22T17:18:28;99500.16;;;-11.01;62.08
75208;BME280;63795;55.684;37.864;2023-02-22T17:23:33;99498.50;;;-11.02;62.08
75208;BME280;63795;55.684;37.864;2023-02-22T17:28:33;99508.66;;;-11.02;62.32
75208;BME280;63795;55.684;37.864;2023-02-22T17:33:34;99519.03;;;-11.09;62.21
75208;BME280;63795;55.684;37.864;2023-02-22T17:38:36;99517.94;;;-11.13;62.31
75208;BME280;63795;55.684;37.864;2023-02-22T17:43:40;99525.88;;;-11.12;62.31
75208;BME280;63795;55.684;37.864;2023-02-22T17:48:41;99534.09;;;-11.17;62.90
75208;BME280;63795;55.684;37.864;2023-02-22T17:53:41;99516.31;;;-11.19;62.56
75208;BME280;63795;55.684;37.864;2023-02-22T17:58:42;99536.03;;;-11.22;62.73
75208;BME280;63795;55.684;37.864;2023-02-22T18:03:42;99538.75;;;-11.22;62.73
75208;BME280;63795;55.684;37.864;2023-02-22T18:08:42;99537.13;;;-11.28;62.64
75208;BME280;63795;55.684;37.864;2023-02-22T18:13:43;99551.88;;;-11.29;62.51
75208;BME280;63795;55.684;37.864;2023-02-22T18:18:43;99546.38;;;-11.29;62.48
75208;BME280;63795;55.684;37.864;2023-02-22T18:23:44;99549.16;;;-11.24;62.97
75208;BME280;63795;55.684;37.864;2023-02-22T18:28:45;99550.25;;;-11.30;62.80
75208;BME280;63795;55.684;37.864;2023-02-22T18:33:50;99548.59;;;-11.37;62.72
75208;BME280;63795;55.684;37.864;2023-02-22T18:38:52;99569.63;;;-11.42;63.30
75208;BME280;63795;55.684;37.864;2023-02-22T18:43:54;99559.22;;;-11.45;63.76
75208;BME280;63795;55.684;37.864;2023-02-22T18:48:58;99561.41;;;-11.47;63.38
75208;BME280;63795;55.684;37.864;2023-02-22T18:53:58;99579.75;;;-11.43;63.02
75208;BME280;63795;55.684;37.864;2023-02-22T19:03:00;99582.47;;;-11.53;63.62
75208;BME280;63795;55.684;37.864;2023-02-22T19:08:00;99583.53;;;-11.54;63.74
75208;BME280;63795;55.684;37.864;2023-02-22T19:13:01;99594.50;;;-11.49;63.39
75208;BME280;63795;55.684;37.864;2023-02-22T19:18:02;99602.13;;;-11.56;63.87
75208;BME280;63795;55.684;37.864;2023-02-22T19:23:02;99595.56;;;-11.65;64.23
75208;BME280;63795;55.684;37.864;2023-02-22T19:28:03;99597.47;;;-11.65;64.39
75208;BME280;63795;55.684;37.864;2023-02-22T19:33:04;99589.84;;;-11.68;64.24
75208;BME280;63795;55.684;37.864;2023-02-22T19:38:04;99591.19;;;-11.66;63.89
75208;BME280;63795;55.684;37.864;2023-02-22T19:43:05;99598.28;;;-11.65;64.63
75208;BME280;63795;55.684;37.864;2023-02-22T19:48:05;99606.22;;;-11.73;64.49
75208;BME280;63795;55.684;37.864;2023-02-22T19:53:06;99599.91;;;-11.74;64.46
75208;BME280;63795;55.684;37.864;2023-02-22T19:58:13;99608.38;;;-11.75;64.54
75208;BME280;63795;55.684;37.864;2023-02-22T20:03:14;99608.09;;;-11.79;64.78
75208;BME280;63795;55.684;37.864;2023-02-22T20:08:15;99614.41;;;-11.78;64.61
75208;BME280;63795;55.684;37.864;2023-02-22T20:13:15;99616.31;;;-11.79;65.08
75208;BME280;63795;55.684;37.864;2023-02-22T20:18:16;99623.91;;;-11.86;65.05
75208;BME280;63795;55.684;37.864;2023-02-22T20:23:16;99627.19;;;-11.84;65.38
75208;BME280;63795;55.684;37.864;2023-02-22T20:28:17;99635.13;;;-11.87;65.30
75208;BME280;63795;55.684;37.864;2023-02-22T20:33:18;99631.81;;;-11.89;65.45
75208;BME280;63795;55.684;37.864;2023-02-22T20:38:18;99626.03;;;-11.98;65.66
75208;BME280;63795;55.684;37.864;2023-02-22T20:43:19;99642.47;;;-11.93;65.69
75208;BME280;63795;55.684;37.864;2023-02-22T20:48:19;99651.50;;;-11.92;65.88
75208;BME280;63795;55.684;37.864;2023-02-22T20:53:20;99659.41;;;-11.91;65.95
75208;BME280;63795;55.684;37.864;2023-02-22T20:58:20;99660.75;;;-11.93;65.85
75208;BME280;63795;55.684;37.864;2023-02-22T21:03:22;99658.81;;;-11.98;66.11
75208;BME280;63795;55.684;37.864;2023-02-22T21:08:22;99666.78;;;-11.96;65.50
75208;BME280;63795;55.684;37.864;2023-02-22T21:13:23;99664.03;;;-11.96;65.41
75208;BME280;63795;55.684;37.864;2023-02-22T21:18:23;99675.75;;;-12.01;66.15
75208;BME280;63795;55.684;37.864;2023-02-22T21:23:24;99671.91;;;-12.05;65.84
75208;BME280;63795;55.684;37.864;2023-02-22T21:28:24;99683.34;;;-12.08;66.11
75208;BME280;63795;55.684;37.864;2023-02-22T21:33:25;99693.47;;;-12.08;66.12
75208;BME280;63795;55.684;37.864;2023-02-22T21:38:25;99686.63;;;-12.11;65.94
75208;BME280;63795;55.684;37.864;2023-02-22T21:43:26;99689.31;;;-12.16;65.70
75208;BME280;63795;55.684;37.864;2023-02-22T21:48:27;99689.88;;;-12.14;66.04
75208;BME280;63795;55.684;37.864;2023-02-22T21:53:28;99695.31;;;-12.19;66.48
75208;BME280;63795;55.684;37.864;2023-02-22T21:58:28;99692.25;;;-12.28;66.53
75208;BME280;63795;55.684;37.864;2023-02-22T22:03:30;99698.25;;;-12.31;66.67
75208;BME280;63795;55.684;37.864;2023-02-22T22:08:30;99699.84;;;-12.35;66.87
75208;BME280;63795;55.684;37.864;2023-02-22T22:13:31;99704.47;;;-12.35;66.38
75208;BME280;63795;55.684;37.864;2023-02-22T22:18:31;99713.78;;;-12.31;66.86
75208;BME280;63795;55.684;37.864;2023-02-22T22:23:32;99712.41;;;-12.34;66.83
75208;BME280;63795;55.684;37.864;2023-02-22T22:28:32;99704.69;;;-12.42;66.68
75208;BME280;63795;55.684;37.864;2023-02-22T22:33:33;99718.34;;;-12.42;66.89
75208;BME280;63795;55.684;37.864;2023-02-22T22:38:35;99710.69;;;-12.45;66.88
75208;BME280;63795;55.684;37.864;2023-02-22T22:43:39;99727.56;;;-12.48;66.50
75208;BME280;63795;55.684;37.864;2023-02-22T22:48:40;99736.88;;;-12.44;66.87
75208;BME280;63795;55.684;37.864;2023-02-22T22:53:42;99730.03;;;-12.46;67.24
75208;BME280;63795;55.684;37.864;2023-02-22T22:58:52;99723.72;;;-12.52;67.25
75208;BME280;63795;55.684;37.864;2023-02-22T23:03:56;99713.63;;;-12.51;67.39
75208;BME280;63795;55.684;37.864;2023-02-22T23:09:00;99719.03;;;-12.56;67.30
75208;BME280;63795;55.684;37.864;2023-02-22T23:14:07;99719.84;;;-12.61;67.38
75208;BME280;63795;55.684;37.864;2023-02-22T23:19:08;99731.47;;;-12.70;67.76
75208;BME280;63795;55.684;37.864;2023-02-22T23:24:09;99734.25;;;-12.65;67.75
75208;BME280;63795;55.684;37.864;2023-02-22T23:29:11;99730.41;;;-12.69;68.17
75208;BME280;63795;55.684;37.864;2023-02-22T23:34:13;99731.69;;;-12.77;68.04
75208;BME280;63795;55.684;37.864;2023-02-22T23:39:15;99738.78;;;-12.76;68.26
75208;BME280;63795;55.684;37.864;2023-02-22T23:44:16;99751.59;;;-12.76;67.75
75208;BME280;63795;55.684;37.864;2023-02-22T23:49:16;99754.88;;;-12.74;67.68
75208;BME280;63795;55.684;37.864;2023-02-22T23:54:20;99760.81;;;-12.82;68.03
75208;BME280;63795;55.684;37.864;2023-02-22T23:59:22;99757.22;;;-12.88;68.43
